createdAt,value
2019-03-08T00:00:06.814Z,0
2019-03-08T00:00:47.176Z,0
2019-03-08T00:01:27.618Z,0
2019-03-08T00:02:08.326Z,0
2019-03-08T00:02:48.900Z,0
2019-03-08T00:03:29.358Z,0
2019-03-08T00:04:09.808Z,0
2019-03-08T00:04:50.814Z,0
2019-03-08T00:05:32.147Z,0
2019-03-08T00:06:12.667Z,0
2019-03-08T00:06:53.187Z,0
2019-03-08T00:07:33.647Z,0
2019-03-08T00:08:14.110Z,0
2019-03-08T00:08:54.466Z,0
2019-03-08T00:09:35.634Z,0
2019-03-08T00:10:16.107Z,0
2019-03-08T00:10:57.264Z,0
2019-03-08T00:11:37.768Z,0
2019-03-08T00:12:18.314Z,0
2019-03-08T00:12:58.707Z,0
2019-03-08T00:13:39.186Z,0
2019-03-08T00:14:20.510Z,0
2019-03-08T00:15:01.016Z,0
2019-03-08T00:15:41.389Z,0
2019-03-08T00:16:22.667Z,0
2019-03-08T00:17:03.075Z,0
2019-03-08T00:17:43.834Z,0
2019-03-08T00:18:24.089Z,0
2019-03-08T00:19:04.780Z,0
2019-03-08T00:19:45.913Z,0
2019-03-08T00:20:26.320Z,0
2019-03-08T00:21:06.666Z,0
2019-03-08T00:21:47.091Z,0
2019-03-08T00:22:27.522Z,0
2019-03-08T00:23:07.900Z,0
2019-03-08T00:23:48.400Z,0
2019-03-08T00:24:29.525Z,0
2019-03-08T00:25:09.955Z,0
2019-03-08T00:25:50.433Z,0
2019-03-08T00:26:30.884Z,0
2019-03-08T00:27:11.362Z,0
2019-03-08T00:27:51.900Z,0
2019-03-08T00:28:32.359Z,0
2019-03-08T00:29:13.050Z,0
2019-03-08T00:29:53.467Z,0
2019-03-08T00:30:33.956Z,0
2019-03-08T00:31:14.487Z,0
2019-03-08T00:31:54.885Z,0
2019-03-08T00:32:35.411Z,0
2019-03-08T00:33:16.080Z,0
2019-03-08T00:33:56.342Z,0
2019-03-08T00:34:36.832Z,0
2019-03-08T00:35:17.862Z,0
2019-03-08T00:35:58.364Z,0
2019-03-08T00:36:38.891Z,0
2019-03-08T00:37:19.384Z,0
2019-03-08T00:37:59.856Z,0
2019-03-08T00:38:40.401Z,0
2019-03-08T00:39:20.795Z,0
2019-03-08T00:40:01.951Z,0
2019-03-08T00:40:42.426Z,0
2019-03-08T00:41:22.770Z,0
2019-03-08T00:42:03.924Z,0
2019-03-08T00:42:44.486Z,0
2019-03-08T00:43:25.536Z,0
2019-03-08T00:44:05.465Z,0
2019-03-08T00:44:46.026Z,0
2019-03-08T00:45:26.539Z,0
2019-03-08T00:46:06.965Z,0
2019-03-08T00:46:47.910Z,0
2019-03-08T00:47:28.637Z,0
2019-03-08T00:48:09.067Z,0
2019-03-08T00:48:51.165Z,0
2019-03-08T00:49:31.573Z,0
2019-03-08T00:50:12.828Z,0
2019-03-08T00:50:53.285Z,0
2019-03-08T00:51:33.714Z,0
2019-03-08T00:52:14.335Z,0
2019-03-08T00:52:55.807Z,0
2019-03-08T00:53:36.177Z,0
2019-03-08T00:54:16.737Z,0
2019-03-08T00:54:58.977Z,0
2019-03-08T00:55:39.323Z,0
2019-03-08T00:56:20.002Z,0
2019-03-08T00:57:00.325Z,0
2019-03-08T00:57:43.226Z,0
2019-03-08T00:58:23.704Z,0
2019-03-08T00:59:04.222Z,0
2019-03-08T00:59:44.848Z,0
2019-03-08T01:00:25.403Z,0
2019-03-08T01:01:05.948Z,0
2019-03-08T01:01:46.386Z,0
2019-03-08T01:02:27.452Z,0
2019-03-08T01:03:07.943Z,0
2019-03-08T01:03:49.645Z,0
2019-03-08T01:04:32.190Z,0
2019-03-08T01:05:12.719Z,0
2019-03-08T01:05:53.018Z,0
2019-03-08T01:06:33.464Z,0
2019-03-08T01:07:15.216Z,0
2019-03-08T01:07:55.788Z,0
2019-03-08T01:08:36.097Z,0
2019-03-08T01:09:16.843Z,0
2019-03-08T01:09:57.130Z,0
2019-03-08T01:10:37.565Z,0
2019-03-08T01:11:18.045Z,0
2019-03-08T01:11:58.399Z,0
2019-03-08T01:12:38.798Z,0
2019-03-08T01:13:20.767Z,0
2019-03-08T01:14:01.753Z,0
2019-03-08T01:14:42.376Z,0
2019-03-08T01:15:22.866Z,0
2019-03-08T01:16:03.322Z,0
2019-03-08T01:16:43.774Z,0
2019-03-08T01:17:24.215Z,0
2019-03-08T01:18:04.590Z,0
2019-03-08T01:18:46.833Z,0
2019-03-08T01:19:30.601Z,0
2019-03-08T01:22:56.983Z,0
2019-03-08T01:23:37.490Z,0
2019-03-08T01:24:19.447Z,0
2019-03-08T01:24:59.807Z,0
2019-03-08T01:25:40.240Z,0
2019-03-08T01:26:20.558Z,0
2019-03-08T01:27:01.184Z,0
2019-03-08T01:27:41.317Z,0
2019-03-08T01:28:21.709Z,0
2019-03-08T01:29:02.151Z,0
2019-03-08T01:29:42.603Z,0
2019-03-08T01:30:22.890Z,0
2019-03-08T01:31:05.252Z,0
2019-03-08T01:31:46.986Z,0
2019-03-08T01:32:28.893Z,0
2019-03-08T01:33:10.205Z,0
2019-03-08T01:33:52.762Z,0
2019-03-08T01:34:33.081Z,0
2019-03-08T01:35:15.248Z,0
2019-03-08T01:35:55.817Z,0
2019-03-08T01:36:36.308Z,0
2019-03-08T01:37:16.734Z,0
2019-03-08T01:37:58.881Z,0
2019-03-08T01:38:39.324Z,0
2019-03-08T01:39:21.737Z,0
2019-03-08T01:40:03.142Z,0
2019-03-08T01:40:44.108Z,0
2019-03-08T01:41:24.528Z,0
2019-03-08T01:42:04.870Z,0
2019-03-08T01:42:45.355Z,0
2019-03-08T01:43:25.929Z,0
2019-03-08T01:44:06.597Z,0
2019-03-08T01:44:46.905Z,0
2019-03-08T01:45:28.323Z,0
2019-03-08T01:46:09.543Z,0
2019-03-08T01:46:50.090Z,0
2019-03-08T01:47:30.491Z,0
2019-03-08T01:48:10.888Z,0
2019-03-08T01:48:52.975Z,0
2019-03-08T01:49:36.970Z,0
2019-03-08T01:50:17.985Z,0
2019-03-08T01:50:58.313Z,0
2019-03-08T01:51:39.689Z,0
2019-03-08T01:52:21.005Z,0
2019-03-08T01:53:01.372Z,0
2019-03-08T01:53:45.426Z,0
2019-03-08T01:54:25.887Z,0
2019-03-08T01:55:12.711Z,0
2019-03-08T01:55:53.166Z,0
2019-03-08T01:56:33.501Z,0
2019-03-08T01:57:14.930Z,0
2019-03-08T01:57:55.353Z,0
2019-03-08T01:58:35.755Z,0
2019-03-08T01:59:16.166Z,0
2019-03-08T01:59:56.618Z,0
2019-03-08T02:00:40.851Z,0
2019-03-08T02:01:20.387Z,0
2019-03-08T02:02:01.048Z,0
2019-03-08T02:02:41.433Z,0
2019-03-08T02:03:23.501Z,0
2019-03-08T02:04:03.889Z,0
2019-03-08T02:04:45.791Z,0
2019-03-08T02:05:28.327Z,0
2019-03-08T02:06:12.470Z,0
2019-03-08T02:06:52.985Z,0
2019-03-08T02:07:33.350Z,0
2019-03-08T02:08:15.619Z,0
2019-03-08T02:08:56.180Z,0
2019-03-08T02:09:36.495Z,0
2019-03-08T02:10:16.840Z,0
2019-03-08T02:10:57.301Z,0
2019-03-08T02:11:37.698Z,0
2019-03-08T02:12:18.956Z,0
2019-03-08T02:12:59.452Z,0
2019-03-08T02:13:40.098Z,0
2019-03-08T02:14:20.443Z,0
2019-03-08T02:15:00.864Z,0
2019-03-08T02:15:43.452Z,0
2019-03-08T02:16:22.636Z,0
2019-03-08T02:17:03.075Z,0
2019-03-08T02:17:43.430Z,0
2019-03-08T02:18:23.831Z,0
2019-03-08T02:19:05.933Z,0
2019-03-08T02:19:46.387Z,0
2019-03-08T02:20:27.024Z,0
2019-03-08T02:21:07.892Z,0
2019-03-08T02:21:47.764Z,0
2019-03-08T02:22:29.965Z,0
2019-03-08T02:23:10.374Z,0
2019-03-08T02:23:50.889Z,0
2019-03-08T02:24:31.875Z,0
2019-03-08T02:25:12.371Z,0
2019-03-08T02:25:52.778Z,0
2019-03-08T02:26:33.296Z,0
2019-03-08T02:27:15.386Z,0
2019-03-08T02:27:55.838Z,0
2019-03-08T02:28:37.490Z,0
2019-03-08T02:29:17.528Z,0
2019-03-08T02:29:57.936Z,0
2019-03-08T02:30:38.327Z,0
2019-03-08T02:31:18.711Z,0
2019-03-08T02:31:59.253Z,0
2019-03-08T02:32:39.688Z,0
2019-03-08T02:33:20.105Z,0
2019-03-08T02:34:00.484Z,0
2019-03-08T02:34:41.073Z,0
2019-03-08T02:35:21.348Z,0
2019-03-08T02:36:03.744Z,0
2019-03-08T02:36:45.973Z,0
2019-03-08T02:37:26.357Z,0
2019-03-08T02:38:06.766Z,0
2019-03-08T02:38:47.147Z,0
2019-03-08T02:39:28.588Z,0
2019-03-08T02:40:09.858Z,0
2019-03-08T02:40:51.411Z,0
2019-03-08T02:41:31.778Z,0
2019-03-08T02:42:12.243Z,0
2019-03-08T02:42:52.509Z,0
2019-03-08T02:43:33.801Z,0
2019-03-08T02:44:14.202Z,0
2019-03-08T02:44:55.501Z,0
2019-03-08T02:45:35.953Z,0
2019-03-08T02:46:21.223Z,0
2019-03-08T02:47:04.085Z,0
2019-03-08T02:47:44.353Z,0
2019-03-08T02:48:26.762Z,0
2019-03-08T02:49:07.325Z,0
2019-03-08T02:49:47.764Z,0
2019-03-08T02:50:28.183Z,0
2019-03-08T02:51:08.571Z,0
2019-03-08T02:51:49.978Z,0
2019-03-08T02:52:31.975Z,0
2019-03-08T02:53:14.075Z,0
2019-03-08T02:53:54.515Z,0
2019-03-08T02:54:35.035Z,0
2019-03-08T02:55:15.400Z,0
2019-03-08T02:55:56.801Z,0
2019-03-08T02:56:37.291Z,0
2019-03-08T02:57:19.300Z,0
2019-03-08T02:57:59.677Z,0
2019-03-08T02:58:40.185Z,0
2019-03-08T02:59:20.619Z,0
2019-03-08T03:00:00.975Z,0
2019-03-08T03:00:41.450Z,0
2019-03-08T03:01:21.922Z,0
2019-03-08T03:02:02.323Z,0
2019-03-08T03:02:42.743Z,0
2019-03-08T03:03:26.123Z,0
2019-03-08T03:04:07.618Z,0
2019-03-08T03:04:47.858Z,0
2019-03-08T03:05:28.723Z,0
2019-03-08T03:06:10.095Z,0
2019-03-08T03:06:51.467Z,0
2019-03-08T03:07:31.933Z,0
2019-03-08T03:08:12.270Z,0
2019-03-08T03:08:53.800Z,0
2019-03-08T03:09:38.071Z,0
2019-03-08T03:10:18.373Z,0
2019-03-08T03:10:59.078Z,0
2019-03-08T03:11:39.278Z,0
2019-03-08T03:12:21.530Z,0
2019-03-08T03:13:02.834Z,0
2019-03-08T03:13:43.234Z,0
2019-03-08T03:14:23.662Z,0
2019-03-08T03:15:05.843Z,0
2019-03-08T03:15:46.361Z,0
2019-03-08T03:16:27.613Z,0
2019-03-08T03:17:08.157Z,0
2019-03-08T03:17:50.187Z,0
2019-03-08T03:18:31.522Z,0
2019-03-08T03:19:11.869Z,0
2019-03-08T03:19:52.269Z,0
2019-03-08T03:20:32.743Z,0
2019-03-08T03:21:13.156Z,0
2019-03-08T03:21:53.526Z,0
2019-03-08T03:22:34.838Z,0
2019-03-08T03:23:15.475Z,0
2019-03-08T03:23:59.321Z,0
2019-03-08T03:24:40.674Z,0
2019-03-08T03:25:22.503Z,0
2019-03-08T03:26:03.982Z,0
2019-03-08T03:26:44.296Z,0
2019-03-08T03:27:24.682Z,0
2019-03-08T03:28:05.118Z,0
2019-03-08T03:28:45.538Z,0
2019-03-08T03:29:25.899Z,0
2019-03-08T03:30:08.550Z,0
2019-03-08T03:30:52.816Z,0
2019-03-08T03:31:34.150Z,0
2019-03-08T03:32:14.466Z,0
2019-03-08T03:32:56.233Z,0
2019-03-08T03:33:37.612Z,0
2019-03-08T03:34:18.959Z,0
2019-03-08T03:35:00.980Z,0
2019-03-08T03:35:41.405Z,0
2019-03-08T03:36:21.928Z,0
2019-03-08T03:37:03.205Z,0
2019-03-08T03:37:43.626Z,0
2019-03-08T03:38:24.194Z,0
2019-03-08T03:39:05.568Z,0
2019-03-08T03:39:46.156Z,0
2019-03-08T03:40:26.559Z,0
2019-03-08T03:41:08.501Z,0
2019-03-08T03:41:48.959Z,0
2019-03-08T03:42:30.213Z,0
2019-03-08T03:43:10.571Z,0
2019-03-08T03:43:51.281Z,0
2019-03-08T03:44:31.565Z,0
2019-03-08T03:45:12.293Z,0
2019-03-08T03:45:52.746Z,0
2019-03-08T03:46:33.099Z,0
2019-03-08T03:47:17.246Z,0
2019-03-08T03:47:57.723Z,0
2019-03-08T03:48:38.599Z,0
2019-03-08T03:49:19.889Z,0
2019-03-08T03:50:00.412Z,0
2019-03-08T03:50:40.814Z,0
2019-03-08T03:51:22.247Z,0
2019-03-08T03:52:02.782Z,0
2019-03-08T03:52:43.234Z,0
2019-03-08T03:53:23.713Z,0
2019-03-08T03:54:04.063Z,0
2019-03-08T03:54:46.476Z,0
2019-03-08T03:55:26.768Z,0
2019-03-08T03:56:07.214Z,0
2019-03-08T03:56:47.669Z,0
2019-03-08T03:57:28.300Z,0
2019-03-08T03:58:08.629Z,0
2019-03-08T03:58:48.978Z,0
2019-03-08T03:59:29.436Z,0
2019-03-08T04:00:11.851Z,0
2019-03-08T04:00:52.202Z,0
2019-03-08T04:01:32.590Z,0
2019-03-08T04:02:12.966Z,0
2019-03-08T04:02:53.356Z,0
2019-03-08T04:03:33.787Z,0
2019-03-08T04:04:16.926Z,0
2019-03-08T04:04:57.741Z,0
2019-03-08T04:05:38.091Z,0
2019-03-08T04:06:18.446Z,0
2019-03-08T04:06:58.860Z,0
2019-03-08T04:07:42.829Z,0
2019-03-08T04:08:23.186Z,0
2019-03-08T04:09:03.648Z,0
2019-03-08T04:09:45.803Z,0
2019-03-08T04:10:26.223Z,0
2019-03-08T04:11:08.423Z,0
2019-03-08T04:11:48.723Z,0
2019-03-08T04:12:29.302Z,0
2019-03-08T04:13:09.676Z,0
2019-03-08T04:13:50.258Z,0
2019-03-08T04:14:31.479Z,0
2019-03-08T04:15:13.761Z,0
2019-03-08T04:15:55.198Z,0
2019-03-08T04:16:35.662Z,0
2019-03-08T04:17:16.339Z,0
2019-03-08T04:17:58.760Z,0
2019-03-08T04:18:41.956Z,0
2019-03-08T04:19:23.688Z,0
2019-03-08T04:20:05.817Z,0
2019-03-08T04:20:46.655Z,0
2019-03-08T04:21:27.028Z,0
2019-03-08T04:22:07.588Z,0
2019-03-08T04:22:48.331Z,0
2019-03-08T04:23:29.006Z,0
2019-03-08T04:24:11.032Z,0
2019-03-08T04:24:52.513Z,0
2019-03-08T04:25:32.802Z,0
2019-03-08T04:26:15.233Z,0
2019-03-08T04:26:55.651Z,0
2019-03-08T05:06:40.194Z,0
2019-03-08T05:07:21.272Z,0
2019-03-08T05:08:01.658Z,0
2019-03-08T05:08:42.020Z,0
2019-03-08T05:09:22.418Z,0
2019-03-08T05:10:02.893Z,0
2019-03-08T05:10:43.504Z,0
2019-03-08T05:11:23.881Z,0
2019-03-08T05:12:04.661Z,0
2019-03-08T05:12:45.208Z,0
2019-03-08T05:13:25.754Z,0
2019-03-08T05:14:06.194Z,0
2019-03-08T05:14:46.635Z,0
2019-03-08T05:15:27.100Z,0
2019-03-08T05:16:07.570Z,0
2019-03-08T05:16:48.080Z,0
2019-03-08T05:17:28.390Z,0
2019-03-08T05:18:08.795Z,0
2019-03-08T05:18:49.137Z,0
2019-03-08T05:19:29.554Z,0
2019-03-08T05:20:10.153Z,0
2019-03-08T05:20:50.393Z,0
2019-03-08T05:21:33.680Z,0
2019-03-08T05:22:14.070Z,0
2019-03-08T05:22:54.584Z,0
2019-03-08T05:23:35.057Z,0
2019-03-08T05:24:15.507Z,0
2019-03-08T05:24:56.035Z,0
2019-03-08T05:25:36.478Z,0
2019-03-08T05:26:16.860Z,0
2019-03-08T05:26:58.237Z,0
2019-03-08T05:27:38.690Z,0
2019-03-08T05:28:19.507Z,0
2019-03-08T05:28:59.635Z,0
2019-03-08T05:29:40.152Z,0
2019-03-08T05:30:20.556Z,0
2019-03-08T05:31:01.423Z,0
2019-03-08T05:31:41.896Z,0
2019-03-08T05:32:22.474Z,0
2019-03-08T05:33:03.920Z,0
2019-03-08T05:33:43.739Z,0
2019-03-08T05:34:24.141Z,0
2019-03-08T05:35:04.664Z,0
2019-03-08T05:35:45.141Z,0
2019-03-08T05:36:25.505Z,0
2019-03-08T05:37:06.349Z,0
2019-03-08T05:37:46.776Z,0
2019-03-08T05:38:26.941Z,0
2019-03-08T05:39:07.741Z,0
2019-03-08T05:39:48.188Z,0
2019-03-08T05:40:28.623Z,0
2019-03-08T05:41:09.884Z,0
2019-03-08T05:41:52.839Z,0
2019-03-08T05:42:36.143Z,0
2019-03-08T05:43:16.748Z,0
2019-03-08T05:43:57.191Z,0
2019-03-08T05:44:37.714Z,0
2019-03-08T05:45:18.358Z,0
2019-03-08T05:45:58.733Z,0
2019-03-08T05:46:39.351Z,0
2019-03-08T05:47:19.821Z,0
2019-03-08T05:48:00.239Z,0
2019-03-08T05:48:40.685Z,0
2019-03-08T05:49:21.074Z,0
2019-03-08T05:50:01.648Z,0
2019-03-08T05:50:42.656Z,0
2019-03-08T05:51:23.077Z,0
2019-03-08T05:52:03.796Z,0
2019-03-08T05:52:44.405Z,0
2019-03-08T05:53:24.859Z,0
2019-03-08T05:54:07.188Z,0
2019-03-08T05:54:45.676Z,0
2019-03-08T05:55:26.502Z,4
2019-03-08T05:56:07.349Z,4
2019-03-08T05:56:47.730Z,4
2019-03-08T05:57:28.185Z,4
2019-03-08T05:58:08.578Z,4
2019-03-08T05:58:49.005Z,4
2019-03-08T05:59:30.153Z,0
2019-03-08T06:00:11.097Z,0
2019-03-08T06:01:08.985Z,4
2019-03-08T06:01:49.558Z,4
2019-03-08T06:02:29.924Z,8
2019-03-08T06:03:10.355Z,4
2019-03-08T06:03:51.238Z,4
2019-03-08T06:04:31.915Z,8
2019-03-08T06:05:12.391Z,8
2019-03-08T06:05:52.763Z,12
2019-03-08T06:06:33.156Z,12
2019-03-08T06:07:13.545Z,12
2019-03-08T06:07:53.942Z,12
2019-03-08T06:08:36.817Z,12
2019-03-08T06:09:17.338Z,16
2019-03-08T06:09:58.105Z,12
2019-03-08T06:10:38.770Z,8
2019-03-08T06:11:19.596Z,12
2019-03-08T06:12:00.423Z,8
2019-03-08T06:12:44.459Z,8
2019-03-08T06:13:25.061Z,8
2019-03-08T06:14:05.840Z,8
2019-03-08T06:14:46.250Z,8
2019-03-08T06:15:28.623Z,4
2019-03-08T06:16:13.210Z,8
2019-03-08T06:16:55.654Z,8
2019-03-08T06:17:36.093Z,12
2019-03-08T06:18:17.891Z,12
2019-03-08T06:18:58.396Z,12
2019-03-08T06:19:39.684Z,12
2019-03-08T06:20:19.865Z,16
2019-03-08T06:21:02.739Z,16
2019-03-08T06:21:44.543Z,20
2019-03-08T06:22:35.631Z,16
2019-03-08T06:23:17.224Z,12
2019-03-08T06:23:57.641Z,16
2019-03-08T06:24:38.055Z,16
2019-03-08T06:25:18.821Z,16
2019-03-08T06:25:59.331Z,16
2019-03-08T06:26:41.285Z,20
2019-03-08T06:27:22.778Z,24
2019-03-08T06:28:04.310Z,28
2019-03-08T06:28:46.348Z,24
2019-03-08T06:29:27.928Z,20
2019-03-08T06:30:26.380Z,20
2019-03-08T06:31:08.804Z,24
2019-03-08T06:34:02.489Z,36
2019-03-08T06:36:09.371Z,40
2019-03-08T06:37:02.450Z,48
2019-03-08T06:37:56.841Z,56
2019-03-08T06:38:49.483Z,56
2019-03-08T06:39:41.815Z,48
2019-03-08T06:40:39.705Z,36
2019-03-08T06:41:31.509Z,32
2019-03-08T06:42:31.845Z,32
2019-03-08T06:43:24.630Z,32
2019-03-08T06:44:17.619Z,36
2019-03-08T06:45:10.796Z,44
2019-03-08T06:46:02.743Z,60
2019-03-08T06:47:01.577Z,72
2019-03-08T06:47:57.118Z,76
2019-03-08T06:49:00.135Z,80
2019-03-08T06:49:38.896Z,80
2019-03-08T06:50:19.531Z,76
2019-03-08T06:50:59.979Z,84
2019-03-08T06:51:40.597Z,96
2019-03-08T06:52:21.061Z,104
2019-03-08T06:53:01.576Z,120
2019-03-08T06:53:42.256Z,136
2019-03-08T06:54:23.530Z,148
2019-03-08T06:55:04.880Z,168
2019-03-08T06:55:45.578Z,180
2019-03-08T06:56:27.250Z,192
2019-03-08T06:57:08.617Z,196
2019-03-08T06:57:58.761Z,200
2019-03-08T06:58:46.063Z,196
2019-03-08T06:59:28.327Z,204
2019-03-08T07:00:08.646Z,208
2019-03-08T07:04:57.006Z,224
2019-03-08T07:05:52.776Z,216
2019-03-08T07:06:46.258Z,216
2019-03-08T07:07:42.470Z,224
2019-03-08T07:08:37.071Z,240
2019-03-08T07:09:34.997Z,240
2019-03-08T07:10:34.699Z,240
2019-03-08T07:11:22.024Z,256
2019-03-08T07:12:09.930Z,284
2019-03-08T07:12:51.290Z,288
2019-03-08T07:13:34.089Z,288
2019-03-08T07:15:37.253Z,288
2019-03-08T07:16:18.725Z,284
2019-03-08T07:16:59.185Z,288
2019-03-08T07:17:39.668Z,284
2019-03-08T07:18:23.796Z,280
2019-03-08T07:19:04.207Z,288
2019-03-08T07:19:44.627Z,296
2019-03-08T07:20:25.097Z,304
2019-03-08T07:21:05.526Z,308
2019-03-08T07:21:46.026Z,320
2019-03-08T07:22:26.724Z,332
2019-03-08T07:23:07.313Z,340
2019-03-08T07:23:48.526Z,348
2019-03-08T07:24:30.063Z,344
2019-03-08T07:25:11.863Z,340
2019-03-08T07:25:54.381Z,340
2019-03-08T07:26:32.948Z,348
2019-03-08T07:27:13.373Z,360
2019-03-08T07:27:53.993Z,380
2019-03-08T07:28:34.680Z,408
2019-03-08T07:29:15.545Z,436
2019-03-08T07:29:57.609Z,460
2019-03-08T07:30:57.822Z,496
2019-03-08T07:31:33.787Z,528
2019-03-08T07:32:15.231Z,560
2019-03-08T07:32:56.984Z,576
2019-03-08T07:33:38.794Z,596
2019-03-08T07:34:19.542Z,612
2019-03-08T07:35:00.273Z,624
2019-03-08T07:35:43.015Z,656
2019-03-08T07:36:24.817Z,704
2019-03-08T07:37:03.884Z,748
2019-03-08T07:37:44.468Z,812
2019-03-08T07:38:25.659Z,856
2019-03-08T07:39:06.617Z,840
2019-03-08T07:39:48.003Z,792
2019-03-08T07:40:28.424Z,736
2019-03-08T07:41:08.871Z,704
2019-03-08T07:41:51.359Z,700
2019-03-08T07:42:32.697Z,712
2019-03-08T07:45:50.290Z,748
2019-03-08T07:46:32.984Z,772
2019-03-08T07:47:14.386Z,824
2019-03-08T07:48:00.382Z,892
2019-03-08T07:48:40.996Z,960
2019-03-08T07:49:38.146Z,1052
2019-03-08T07:50:22.813Z,1080
2019-03-08T07:51:04.792Z,1140
2019-03-08T07:51:45.397Z,1172
2019-03-08T07:52:25.766Z,1212
2019-03-08T07:53:06.573Z,1280
2019-03-08T07:53:49.842Z,1376
2019-03-08T07:54:30.587Z,1440
2019-03-08T07:55:13.006Z,1512
2019-03-08T07:55:53.610Z,1644
2019-03-08T07:56:34.202Z,1776
2019-03-08T07:57:16.173Z,1856
2019-03-08T07:57:56.736Z,1832
2019-03-08T07:58:39.948Z,1828
2019-03-08T07:59:23.143Z,1808
2019-03-08T08:01:30.205Z,1768
2019-03-08T08:02:12.414Z,1640
2019-03-08T08:02:53.124Z,1680
2019-03-08T08:03:33.541Z,1668
2019-03-08T08:04:14.075Z,1620
2019-03-08T08:04:56.422Z,1532
2019-03-08T08:05:38.336Z,1484
2019-03-08T08:06:22.408Z,1356
2019-03-08T08:07:02.042Z,1144
2019-03-08T08:07:49.014Z,864
2019-03-08T08:08:30.635Z,748
2019-03-08T08:09:11.153Z,704
2019-03-08T08:09:51.515Z,736
2019-03-08T08:10:31.924Z,828
2019-03-08T08:11:12.353Z,960
2019-03-08T08:11:57.356Z,1124
2019-03-08T08:12:39.971Z,1332
2019-03-08T08:13:20.408Z,1524
2019-03-08T08:14:01.063Z,1596
2019-03-08T08:14:43.659Z,1616
2019-03-08T08:15:28.663Z,1596
2019-03-08T08:16:12.987Z,1512
2019-03-08T08:17:03.090Z,1440
2019-03-08T08:17:48.780Z,1400
2019-03-08T08:18:29.217Z,1372
2019-03-08T08:19:11.453Z,1380
2019-03-08T08:19:55.427Z,1404
2019-03-08T08:20:38.659Z,1452
2019-03-08T08:21:20.652Z,1428
2019-03-08T08:22:04.791Z,1532
2019-03-08T08:22:45.239Z,1592
2019-03-08T08:23:34.197Z,1692
2019-03-08T08:24:10.751Z,1800
2019-03-08T08:24:51.196Z,1944
2019-03-08T08:25:36.651Z,2140
2019-03-08T08:26:12.693Z,2316
2019-03-08T08:26:53.194Z,2288
2019-03-08T08:27:53.153Z,2496
2019-03-08T08:28:35.006Z,2488
2019-03-08T08:29:34.628Z,2484
2019-03-08T08:30:13.649Z,2432
2019-03-08T08:30:58.112Z,2168
2019-03-08T08:31:41.702Z,1948
2019-03-08T08:32:24.075Z,1800
2019-03-08T08:33:10.034Z,1584
2019-03-08T08:33:50.554Z,1444
2019-03-08T08:34:31.095Z,1432
2019-03-08T08:35:18.015Z,1396
2019-03-08T08:36:01.955Z,1320
2019-03-08T08:37:01.653Z,1212
2019-03-08T08:37:44.528Z,1264
2019-03-08T08:38:29.631Z,1288
2019-03-08T08:39:11.130Z,1312
2019-03-08T08:39:51.561Z,1424
2019-03-08T08:40:37.455Z,1484
2019-03-08T08:43:29.457Z,1216
2019-03-08T08:44:33.337Z,1032
2019-03-08T08:45:35.460Z,1036
2019-03-08T08:46:32.969Z,1044
2019-03-08T08:47:32.813Z,1076
2019-03-08T08:48:31.007Z,1064
2019-03-08T08:49:32.026Z,1044
2019-03-08T08:50:25.966Z,1100
2019-03-08T08:51:23.519Z,1128
2019-03-08T08:52:23.598Z,992
2019-03-08T08:53:27.029Z,916
2019-03-08T08:54:24.821Z,916
2019-03-08T08:55:18.343Z,968
2019-03-08T08:59:16.225Z,1468
2019-03-08T09:00:11.246Z,1652
2019-03-08T09:01:12.103Z,1760
2019-03-08T09:02:07.998Z,1948
2019-03-08T09:03:01.595Z,1940
2019-03-08T09:03:54.652Z,1696
2019-03-08T09:04:46.910Z,1496
2019-03-08T09:05:40.684Z,1532
2019-03-08T09:10:50.627Z,992
2019-03-08T09:11:52.097Z,900
2019-03-08T09:12:40.357Z,904
2019-03-08T09:13:36.044Z,1116
2019-03-08T09:14:30.608Z,1264
2019-03-08T09:15:30.355Z,1316
2019-03-08T09:16:29.910Z,1220
2019-03-08T09:17:26.657Z,1320
2019-03-08T09:18:38.380Z,1264
2019-03-08T09:19:32.244Z,1464
2019-03-08T09:20:24.516Z,1492
2019-03-08T09:21:21.500Z,1488
2019-03-08T09:22:17.467Z,1448
2019-03-08T09:23:09.657Z,1308
2019-03-08T09:26:09.964Z,1484
2019-03-08T09:27:02.963Z,1620
2019-03-08T09:27:58.127Z,1640
2019-03-08T09:28:50.536Z,1772
2019-03-08T09:29:45.571Z,1888
2019-03-08T09:30:44.151Z,1936
2019-03-08T09:31:40.251Z,2044
2019-03-08T09:32:36.019Z,2044
2019-03-08T09:33:35.024Z,2144
2019-03-08T09:34:34.013Z,2096
2019-03-08T09:35:26.875Z,2032
2019-03-08T09:36:19.361Z,2104
2019-03-08T09:37:18.401Z,2496
2019-03-08T09:43:30.777Z,2408
2019-03-08T09:44:13.664Z,2348
2019-03-08T09:44:57.809Z,2204
2019-03-08T09:45:41.064Z,2080
2019-03-08T09:46:26.651Z,2080
2019-03-08T09:47:08.454Z,2108
2019-03-08T09:47:48.757Z,2256
2019-03-08T09:48:29.160Z,2240
2019-03-08T09:49:09.585Z,2180
2019-03-08T09:49:51.754Z,2208
2019-03-08T09:50:34.012Z,2388
2019-03-08T09:51:14.540Z,2368
2019-03-08T09:51:55.012Z,2260
2019-03-08T09:52:38.194Z,2344
2019-03-08T09:53:24.097Z,2456
2019-03-08T09:54:05.517Z,2352
2019-03-08T09:54:49.577Z,2304
2019-03-08T09:55:29.996Z,2340
2019-03-08T09:56:10.487Z,2532
2019-03-08T09:56:51.948Z,2560
2019-03-08T09:57:35.551Z,2556
2019-03-08T09:58:15.942Z,2584
2019-03-08T09:58:56.494Z,2652
2019-03-08T09:59:37.151Z,2600
2019-03-08T10:00:22.015Z,2332
2019-03-08T10:01:02.658Z,2444
2019-03-08T10:01:44.673Z,2488
2019-03-08T10:02:25.464Z,2364
2019-03-08T10:03:08.619Z,2248
2019-03-08T10:03:50.768Z,2228
2019-03-08T10:04:41.985Z,2112
2019-03-08T10:05:22.362Z,2008
2019-03-08T10:06:04.671Z,2000
2019-03-08T10:06:44.946Z,2216
2019-03-08T10:07:25.508Z,2376
2019-03-08T10:08:13.265Z,2312
2019-03-08T10:09:00.791Z,2460
2019-03-08T10:20:30.779Z,1560
2019-03-08T10:21:11.221Z,1380
2019-03-08T10:21:53.017Z,1248
2019-03-08T10:22:33.077Z,1188
2019-03-08T10:23:19.789Z,1304
2019-03-08T10:23:54.194Z,1232
2019-03-08T10:24:39.307Z,1532
2019-03-08T10:25:19.685Z,1120
2019-03-08T10:26:00.118Z,1420
2019-03-08T10:26:40.531Z,1552
2019-03-08T10:27:20.880Z,1576
2019-03-08T10:28:03.873Z,1604
2019-03-08T10:28:51.157Z,1668
2019-03-08T11:06:51.123Z,880
2019-03-08T11:07:33.089Z,848
2019-03-08T11:08:14.027Z,816
2019-03-08T11:08:57.460Z,1004
2019-03-08T11:09:39.116Z,968
2019-03-08T11:10:19.454Z,1236
2019-03-08T11:11:06.249Z,1104
2019-03-08T11:11:43.797Z,1016
2019-03-08T11:12:24.461Z,1444
2019-03-08T11:13:05.565Z,1192
2019-03-08T11:13:46.907Z,1352
2019-03-08T11:14:27.440Z,1668
2019-03-08T11:15:12.661Z,1488
2019-03-08T11:15:54.650Z,1668
2019-03-08T11:16:35.174Z,1636
2019-03-08T11:17:17.301Z,1664
2019-03-08T11:18:02.581Z,1632
2019-03-08T11:18:46.514Z,1860
2019-03-08T11:19:28.866Z,1872
2019-03-08T11:20:09.280Z,1980
2019-03-08T11:20:49.813Z,1708
2019-03-08T11:21:40.019Z,1916
2019-03-08T11:22:22.358Z,2188
2019-03-08T11:23:03.692Z,1808
2019-03-08T11:23:44.131Z,1800
2019-03-08T11:24:26.298Z,2212
2019-03-08T11:25:08.844Z,1844
2019-03-08T11:25:50.050Z,1844
2019-03-08T11:26:32.180Z,1980
2019-03-08T11:27:14.579Z,2216
2019-03-08T11:27:55.038Z,2112
2019-03-08T11:28:35.543Z,2064
2019-03-08T11:29:17.958Z,2012
2019-03-08T11:29:58.311Z,1884
2019-03-08T11:30:40.719Z,1816
2019-03-08T11:31:22.857Z,1808
2019-03-08T11:32:04.478Z,1996
2019-03-08T11:32:47.318Z,1572
2019-03-08T11:33:27.726Z,1644
2019-03-08T11:34:08.072Z,1800
2019-03-08T11:34:52.040Z,2080
2019-03-08T11:35:29.014Z,2064
2019-03-08T11:36:12.310Z,2072
2019-03-08T11:36:52.898Z,2272
2019-03-08T11:37:33.250Z,2324
2019-03-08T11:38:15.634Z,2116
2019-03-08T11:38:56.022Z,1824
2019-03-08T11:39:39.584Z,1824
2019-03-08T11:40:21.888Z,1924
2019-03-08T11:41:04.181Z,2084
2019-03-08T11:41:48.098Z,2248
2019-03-08T11:42:30.104Z,2340
2019-03-08T11:43:08.983Z,2256
2019-03-08T11:43:51.136Z,2120
2019-03-08T11:44:33.148Z,2180
2019-03-08T11:45:16.323Z,1932
2019-03-08T11:45:56.755Z,2356
2019-03-08T11:46:38.093Z,1940
2019-03-08T11:47:18.472Z,2184
2019-03-08T11:47:58.860Z,1856
2019-03-08T11:48:41.143Z,2424
2019-03-08T11:49:22.556Z,2468
2019-03-08T11:50:03.039Z,2184
2019-03-08T11:50:45.433Z,1904
2019-03-08T11:51:27.864Z,1876
2019-03-08T11:52:08.312Z,2004
2019-03-08T11:52:48.846Z,2012
2019-03-08T11:53:30.943Z,2424
2019-03-08T11:54:11.364Z,1884
2019-03-08T11:54:51.886Z,1916
2019-03-08T11:55:34.065Z,2496
2019-03-08T11:56:14.755Z,2540
2019-03-08T11:56:56.288Z,2556
2019-03-08T11:57:35.610Z,2148
2019-03-08T11:58:16.036Z,1972
2019-03-08T11:58:58.308Z,1904
2019-03-08T11:59:38.983Z,1860
2019-03-08T12:00:19.429Z,1848
2019-03-08T12:00:59.790Z,1804
2019-03-08T12:01:40.238Z,1780
2019-03-08T12:02:22.609Z,1660
2019-03-08T12:03:03.166Z,1656
2019-03-08T12:03:43.533Z,1680
2019-03-08T12:04:24.053Z,1748
2019-03-08T12:05:04.398Z,1920